Breton, Canada
Current Conditions -  °F | °C
As of 8:00 AM on Friday 24 Oct 2014 (Local Time) from CWSE Reporting Station
Broken Clouds Broken Clouds  
Wind Chill: 31°   Ceiling: 24600
Heat Index: 38°   Visibility: 15mi
Dew Point: 32°   Wind: 10mph
Humidity: 77%   Direction: 260°W
Pressure: 29.77"   Gusts: NA
Location:  53.12°N, 114.48°W
Report Text: CWSE 241400Z 26009KT 15SM FEW098 FEW177 BKN246 03/M00 A2977 RMK SLP085 T00341002 WSI/SWOB
Loading
Personal Weather Stations






























Interactive Weather Map
Tropical Storm Tracking
New forecast layout! Learn more

10-Day Weather Forecast

Advertisements
Track Severe Weather on mobile